createdAt,value
2022-11-29T00:01:31.917Z,46.93
2022-11-29T00:03:59.331Z,49.33
2022-11-29T00:06:28.535Z,54.30
2022-11-29T00:08:56.937Z,47.67
2022-11-29T00:11:48.729Z,49.17
2022-11-29T00:14:18.092Z,43.63
2022-11-29T00:16:45.746Z,52.83
2022-11-29T00:19:13.515Z,42.83
2022-11-29T00:21:40.245Z,50.70
2022-11-29T00:24:07.776Z,51.20
2022-11-29T00:26:34.624Z,47.40
2022-11-29T00:29:01.363Z,47.27
2022-11-29T00:31:30.956Z,51.57
2022-11-29T00:34:00.325Z,43.50
2022-11-29T00:36:27.930Z,43.80
2022-11-29T00:38:54.647Z,48.17
2022-11-29T00:41:21.593Z,45.97
2022-11-29T00:43:48.424Z,45.53
2022-11-29T00:46:15.473Z,39.43
2022-11-29T00:48:42.211Z,43.80
2022-11-29T00:51:08.900Z,43.60
2022-11-29T00:53:36.744Z,41.50
2022-11-29T00:56:05.184Z,45.30
2022-11-29T00:58:32.530Z,44.37
2022-11-29T01:00:59.600Z,46.90
2022-11-29T01:03:26.361Z,44.40
2022-11-29T01:05:53.117Z,43.87
2022-11-29T01:08:20.058Z,39.90
2022-11-29T01:10:46.765Z,43.67
2022-11-29T01:13:14.614Z,42.13
2022-11-29T01:15:42.199Z,43.13
2022-11-29T01:18:08.988Z,44.27
2022-11-29T01:20:35.693Z,42.60
2022-11-29T01:23:02.373Z,41.60
2022-11-29T01:25:29.552Z,41.33
2022-11-29T01:27:56.216Z,40.90
2022-11-29T01:30:23.021Z,45.30
2022-11-29T01:32:49.809Z,42.73
2022-11-29T01:35:16.556Z,38.97
2022-11-29T01:37:43.237Z,42.23
2022-11-29T01:40:10.284Z,44.40
2022-11-29T01:42:36.944Z,43.47
2022-11-29T01:45:25.182Z,41.87
2022-11-29T01:47:56.892Z,43.37
2022-11-29T01:50:23.786Z,42.80
2022-11-29T01:52:50.734Z,44.00
2022-11-29T01:55:18.368Z,39.53
2022-11-29T01:57:45.696Z,40.83
2022-11-29T02:00:16.008Z,44.90
2022-11-29T02:02:47.290Z,42.63
2022-11-29T02:05:16.676Z,41.37
2022-11-29T02:07:45.999Z,41.00
2022-11-29T02:10:15.706Z,46.43
2022-11-29T02:12:58.989Z,40.40
2022-11-29T02:15:35.650Z,47.63
2022-11-29T02:18:11.597Z,46.80
2022-11-29T02:20:51.465Z,41.57
2022-11-29T02:24:06.249Z,40.43
2022-11-29T02:26:57.477Z,42.03
2022-11-29T02:30:06.169Z,39.47
2022-11-29T02:33:06.630Z,44.03
2022-11-29T02:35:55.171Z,42.73
2022-11-29T02:38:30.461Z,44.77
2022-11-29T02:41:13.908Z,38.37
2022-11-29T02:43:58.683Z,42.23
2022-11-29T02:47:04.024Z,41.33
2022-11-29T02:49:51.389Z,42.33
2022-11-29T02:52:26.605Z,41.00
2022-11-29T02:55:09.541Z,44.00
2022-11-29T02:58:08.599Z,44.23
2022-11-29T03:00:43.714Z,43.03
2022-11-29T03:03:23.914Z,42.80
2022-11-29T03:06:17.609Z,43.57
2022-11-29T03:08:59.298Z,44.13
2022-11-29T03:11:29.121Z,42.60
2022-11-29T03:14:09.702Z,39.93
2022-11-29T03:17:10.503Z,40.97
2022-11-29T03:19:58.772Z,39.90
2022-11-29T03:22:48.051Z,40.83
2022-11-29T03:25:45.999Z,39.30
2022-11-29T03:28:25.149Z,45.33
2022-11-29T03:31:17.935Z,42.93
2022-11-29T03:33:50.040Z,49.67
2022-11-29T03:36:42.192Z,47.67
2022-11-29T03:39:18.553Z,49.60
2022-11-29T03:42:11.697Z,49.53
2022-11-29T03:44:46.831Z,42.87
2022-11-29T03:47:17.188Z,48.27
2022-11-29T03:49:54.769Z,44.30
2022-11-29T03:52:52.164Z,40.93
2022-11-29T03:55:28.694Z,42.47
2022-11-29T03:58:01.272Z,45.10
2022-11-29T04:00:54.886Z,42.77
2022-11-29T04:03:59.850Z,41.33
2022-11-29T04:06:39.284Z,41.37
2022-11-29T04:09:27.522Z,41.13
2022-11-29T04:12:03.086Z,48.37
2022-11-29T04:14:54.821Z,42.83
2022-11-29T04:17:43.293Z,41.90
2022-11-29T04:20:09.948Z,44.53
2022-11-29T04:23:03.235Z,41.80
2022-11-29T04:25:53.423Z,43.47
2022-11-29T04:28:38.270Z,42.07
2022-11-29T04:31:32.068Z,47.30
2022-11-29T04:34:20.205Z,44.80
2022-11-29T04:36:52.612Z,45.10
2022-11-29T04:39:41.092Z,42.27
2022-11-29T04:42:10.740Z,46.60
2022-11-29T04:44:43.497Z,44.77
2022-11-29T04:47:27.667Z,47.77
2022-11-29T04:50:37.895Z,41.40
2022-11-29T04:53:13.452Z,42.00
2022-11-29T04:55:51.165Z,48.07
2022-11-29T04:58:40.881Z,40.63
2022-11-29T05:01:24.522Z,42.73
2022-11-29T05:03:57.052Z,45.43
2022-11-29T05:06:42.342Z,46.03
2022-11-29T05:09:34.524Z,43.33
2022-11-29T05:12:42.941Z,43.87
2022-11-29T05:15:47.118Z,43.20
2022-11-29T05:18:39.757Z,43.43
2022-11-29T05:21:19.268Z,46.43
2022-11-29T05:24:15.489Z,44.13
2022-11-29T05:27:08.794Z,44.00
2022-11-29T05:29:59.357Z,52.13
2022-11-29T05:32:26.984Z,42.83
2022-11-29T05:35:15.373Z,43.10
2022-11-29T05:37:56.856Z,43.47
2022-11-29T05:40:50.852Z,47.80
2022-11-29T05:43:17.475Z,46.40
2022-11-29T05:46:02.836Z,46.77
2022-11-29T05:48:38.281Z,49.57
2022-11-29T05:51:07.740Z,40.77
2022-11-29T05:53:47.916Z,43.50
2022-11-29T05:56:34.307Z,47.97
2022-11-29T05:59:08.143Z,47.03
2022-11-29T06:01:46.809Z,43.40
2022-11-29T06:04:33.234Z,43.97
2022-11-29T06:07:18.188Z,41.57
2022-11-29T06:09:52.828Z,48.80
2022-11-29T06:12:24.809Z,45.23
2022-11-29T06:15:20.899Z,46.73
2022-11-29T06:17:59.511Z,43.10
2022-11-29T06:20:42.185Z,41.50
2022-11-29T06:23:29.157Z,50.40
2022-11-29T06:26:04.080Z,45.40
2022-11-29T06:28:49.156Z,43.03
2022-11-29T06:31:39.480Z,44.30
2022-11-29T06:34:40.421Z,45.63
2022-11-29T06:37:23.842Z,45.30
2022-11-29T06:39:50.852Z,45.07
2022-11-29T06:42:17.704Z,55.70
2022-11-29T06:44:45.011Z,49.90
2022-11-29T06:47:42.164Z,52.77
2022-11-29T06:50:28.460Z,54.33
2022-11-29T06:53:24.572Z,47.33
2022-11-29T06:56:18.472Z,51.87
2022-11-29T06:59:12.188Z,52.03
2022-11-29T07:01:53.717Z,51.03
2022-11-29T07:04:30.537Z,46.83
2022-11-29T07:06:57.588Z,49.40
2022-11-29T07:09:30.503Z,50.03
2022-11-29T07:11:57.619Z,55.80
2022-11-29T07:14:24.716Z,53.77
2022-11-29T07:17:09.667Z,57.97
2022-11-29T07:20:01.227Z,51.00
2022-11-29T07:22:49.172Z,47.87
2022-11-29T07:25:25.534Z,51.23
2022-11-29T07:28:01.214Z,50.77
2022-11-29T07:30:47.497Z,57.63
2022-11-29T07:33:26.236Z,55.50
2022-11-29T07:36:14.473Z,52.90
2022-11-29T07:39:06.298Z,57.50
2022-11-29T07:41:42.213Z,56.03
2022-11-29T07:44:21.310Z,58.60
2022-11-29T07:46:48.031Z,55.00
2022-11-29T07:49:14.836Z,54.53
2022-11-29T07:51:41.850Z,57.73
2022-11-29T07:54:10.996Z,58.00
2022-11-29T07:56:37.674Z,59.27
2022-11-29T07:59:04.539Z,57.53
2022-11-29T08:01:31.440Z,58.37
2022-11-29T08:03:58.112Z,58.27
2022-11-29T08:06:26.204Z,58.33
2022-11-29T08:08:52.953Z,56.70
2022-11-29T08:11:19.607Z,56.70
2022-11-29T08:13:46.271Z,68.40
2022-11-29T08:16:19.050Z,55.73
2022-11-29T08:18:45.807Z,55.33
2022-11-29T08:21:17.934Z,53.90
2022-11-29T08:23:48.906Z,61.23
2022-11-29T08:26:17.460Z,54.80
2022-11-29T08:28:44.710Z,58.83
2022-11-29T08:31:13.057Z,57.23
2022-11-29T08:33:42.374Z,56.23
2022-11-29T08:36:15.264Z,59.90
2022-11-29T08:38:41.969Z,60.03
2022-11-29T08:41:10.959Z,59.20
2022-11-29T08:43:37.700Z,60.10
2022-11-29T08:46:04.443Z,62.17
2022-11-29T08:48:31.368Z,64.77
2022-11-29T08:50:58.335Z,59.43
2022-11-29T08:53:44.769Z,61.90
2022-11-29T08:56:53.460Z,60.57
2022-11-29T08:59:01.035Z,60.57
2022-11-29T09:01:29.388Z,63.53
2022-11-29T09:04:07.197Z,61.27
2022-11-29T09:06:40.154Z,61.20
2022-11-29T09:09:07.245Z,69.30
2022-11-29T09:11:35.701Z,61.73
2022-11-29T09:14:05.636Z,61.00
2022-11-29T09:16:35.589Z,66.67
2022-11-29T09:19:03.452Z,70.47
2022-11-29T09:21:32.612Z,66.33
2022-11-29T09:24:01.293Z,67.67
2022-11-29T09:26:31.217Z,62.57
2022-11-29T09:29:03.840Z,62.57
2022-11-29T09:31:32.224Z,68.20
2022-11-29T09:33:59.164Z,64.30
2022-11-29T09:36:28.754Z,69.43
2022-11-29T09:38:56.645Z,71.23
2022-11-29T09:41:45.588Z,65.77
2022-11-29T09:44:52.720Z,64.43
2022-11-29T09:47:28.236Z,64.33
2022-11-29T09:50:21.277Z,66.13
2022-11-29T09:53:09.215Z,67.03
2022-11-29T09:55:58.580Z,71.33
2022-11-29T09:58:38.205Z,64.30
2022-11-29T10:01:09.153Z,71.87
2022-11-29T10:03:42.509Z,66.10
2022-11-29T10:06:19.933Z,70.17
2022-11-29T10:08:54.216Z,75.17
2022-11-29T10:11:33.769Z,74.33
2022-11-29T10:14:09.384Z,73.90
2022-11-29T10:16:57.508Z,69.97
2022-11-29T10:19:36.083Z,67.73
2022-11-29T10:22:07.968Z,68.47
2022-11-29T10:28:13.149Z,69.37
2022-11-29T10:38:31.771Z,72.90
2022-11-29T10:44:39.064Z,69.10
2022-11-29T10:47:13.725Z,72.00
2022-11-29T10:52:48.869Z,68.83
2022-11-29T11:08:02.035Z,71.47
2022-11-29T11:10:21.045Z,69.90
2022-11-29T11:16:37.436Z,74.13
2022-11-29T11:19:31.463Z,68.33
2022-11-29T11:22:00.621Z,65.67
2022-11-29T11:24:29.942Z,70.07
2022-11-29T11:26:57.065Z,73.00
2022-11-29T11:29:28.284Z,71.73
2022-11-29T11:31:57.810Z,64.67
2022-11-29T11:34:25.400Z,66.77
2022-11-29T11:36:53.564Z,70.87
2022-11-29T11:39:24.483Z,68.20
2022-11-29T11:42:10.677Z,70.67
2022-11-29T11:44:50.047Z,67.53
2022-11-29T11:47:18.860Z,73.63
2022-11-29T11:49:53.473Z,68.80
2022-11-29T11:52:53.835Z,68.10
2022-11-29T11:55:32.550Z,67.67
2022-11-29T11:58:09.377Z,70.07
2022-11-29T12:01:06.191Z,67.37
2022-11-29T12:03:40.341Z,70.47
2022-11-29T12:06:43.590Z,61.97
2022-11-29T12:09:28.871Z,57.83
2022-11-29T12:12:00.213Z,68.97
2022-11-29T12:14:36.521Z,65.77
2022-11-29T12:17:20.601Z,67.27
2022-11-29T12:19:59.581Z,68.33
2022-11-29T12:22:33.773Z,56.57
2022-11-29T12:25:04.889Z,67.20
2022-11-29T12:27:34.049Z,65.77
2022-11-29T12:30:03.080Z,66.67
2022-11-29T12:33:11.979Z,66.90
2022-11-29T12:35:52.373Z,69.97
2022-11-29T12:38:40.761Z,73.23
2022-11-29T12:41:40.192Z,64.80
2022-11-29T12:44:38.058Z,66.13
2022-11-29T12:47:36.443Z,71.00
2022-11-29T12:50:08.846Z,69.13
2022-11-29T12:53:01.433Z,61.40
2022-11-29T12:55:52.387Z,65.73
2022-11-29T12:58:30.632Z,65.50
2022-11-29T13:01:12.532Z,61.40
2022-11-29T13:03:51.135Z,67.17
2022-11-29T13:06:28.751Z,63.70
2022-11-29T13:09:42.380Z,66.63
2022-11-29T13:12:33.638Z,66.80
2022-11-29T13:15:06.632Z,71.67
2022-11-29T13:17:39.625Z,62.60
2022-11-29T13:20:28.483Z,65.67
2022-11-29T13:23:15.437Z,65.13
2022-11-29T13:25:50.775Z,70.00
2022-11-29T13:28:29.654Z,69.40
2022-11-29T13:31:07.779Z,71.47
2022-11-29T13:34:12.219Z,65.53
2022-11-29T13:37:04.636Z,62.00
2022-11-29T13:39:31.339Z,64.87
2022-11-29T13:42:45.988Z,67.67
2022-11-29T13:45:24.093Z,68.83
2022-11-29T13:48:00.403Z,65.43
2022-11-29T13:50:39.760Z,66.53
2022-11-29T13:53:15.285Z,68.13
2022-11-29T13:56:01.309Z,69.03
2022-11-29T13:58:28.071Z,71.87
2022-11-29T14:01:01.339Z,63.23
2022-11-29T14:04:00.309Z,62.30
2022-11-29T14:06:38.842Z,68.10
2022-11-29T14:09:23.331Z,65.40
2022-11-29T14:11:57.502Z,69.83
2022-11-29T14:14:52.341Z,65.40
2022-11-29T14:17:52.017Z,62.63
2022-11-29T14:20:25.414Z,66.83
2022-11-29T14:23:31.891Z,69.20
2022-11-29T14:25:58.533Z,67.03
2022-11-29T14:28:32.943Z,58.40
2022-11-29T14:31:01.961Z,70.47
2022-11-29T14:33:56.564Z,69.43
2022-11-29T14:36:54.806Z,65.57
2022-11-29T14:39:35.618Z,67.90
2022-11-29T14:42:18.773Z,71.07
2022-11-29T14:44:51.238Z,69.53
2022-11-29T14:47:29.885Z,62.17
2022-11-29T14:49:59.226Z,61.60
2022-11-29T14:52:25.996Z,63.87
2022-11-29T14:55:00.760Z,68.83
2022-11-29T14:57:55.284Z,63.83
2022-11-29T15:00:25.945Z,63.47
2022-11-29T15:02:55.407Z,73.30
2022-11-29T15:05:32.193Z,68.17
2022-11-29T15:08:16.270Z,68.70
2022-11-29T15:10:51.070Z,68.90
2022-11-29T15:13:28.627Z,64.00
2022-11-29T15:16:10.793Z,61.83
2022-11-29T15:18:43.739Z,67.03
2022-11-29T15:21:29.348Z,67.57
2022-11-29T15:24:09.279Z,65.97
2022-11-29T15:26:36.118Z,64.50
2022-11-29T15:29:17.071Z,67.60
2022-11-29T15:31:53.104Z,77.13
2022-11-29T15:34:34.873Z,66.47
2022-11-29T15:37:01.917Z,67.17
2022-11-29T15:39:32.191Z,76.07
2022-11-29T15:42:11.578Z,74.13
2022-11-29T15:44:45.745Z,66.43
2022-11-29T15:47:24.615Z,70.77
2022-11-29T15:49:53.112Z,73.03
2022-11-29T15:52:30.285Z,71.20
2022-11-29T15:55:03.301Z,68.97
2022-11-29T15:57:34.516Z,70.23
2022-11-29T16:00:23.103Z,76.87
2022-11-29T16:03:00.950Z,68.67
2022-11-29T16:05:38.400Z,75.47
2022-11-29T16:08:13.555Z,72.70
2022-11-29T16:10:50.310Z,69.50
2022-11-29T16:13:23.253Z,73.17
2022-11-29T16:16:03.575Z,71.40
2022-11-29T16:18:30.508Z,74.07
2022-11-29T16:21:06.033Z,73.73
2022-11-29T16:23:43.679Z,74.40
2022-11-29T16:26:30.361Z,71.93
2022-11-29T16:29:00.123Z,72.23
2022-11-29T16:31:35.655Z,72.27
2022-11-29T16:34:15.517Z,72.87
2022-11-29T16:36:42.265Z,71.23
2022-11-29T16:39:24.347Z,64.70
2022-11-29T16:42:24.899Z,73.60
2022-11-29T16:45:01.819Z,70.87
2022-11-29T16:47:46.720Z,72.47
2022-11-29T16:50:21.790Z,81.93
2022-11-29T16:52:54.868Z,68.03
2022-11-29T16:55:23.626Z,75.13
2022-11-29T16:57:52.120Z,71.20
2022-11-29T17:00:30.688Z,76.83
2022-11-29T17:02:58.534Z,75.83
2022-11-29T17:05:25.698Z,71.23
2022-11-29T17:07:52.783Z,70.80
2022-11-29T17:10:23.425Z,82.17
2022-11-29T17:12:50.409Z,76.73
2022-11-29T17:15:17.169Z,70.80
2022-11-29T17:17:43.932Z,76.10
2022-11-29T17:20:12.572Z,73.43
2022-11-29T17:22:39.691Z,79.67
2022-11-29T17:25:06.862Z,79.63
2022-11-29T17:27:33.647Z,71.17
2022-11-29T17:30:00.477Z,71.77
2022-11-29T17:32:27.356Z,74.33
2022-11-29T17:34:54.273Z,75.57
2022-11-29T17:37:20.984Z,76.27
2022-11-29T17:39:49.085Z,74.67
2022-11-29T17:42:15.934Z,72.37
2022-11-29T17:44:42.741Z,77.67
2022-11-29T17:47:09.439Z,77.27
2022-11-29T17:49:36.171Z,84.87
2022-11-29T17:52:03.014Z,81.70
2022-11-29T17:54:32.963Z,72.17
2022-11-29T17:57:00.844Z,67.30
2022-11-29T17:59:27.717Z,77.50
2022-11-29T18:01:54.469Z,73.23
2022-11-29T18:04:21.838Z,77.10
2022-11-29T18:06:51.700Z,75.33
2022-11-29T18:09:19.602Z,77.90
2022-11-29T18:11:49.642Z,71.33
2022-11-29T18:14:20.266Z,85.87
2022-11-29T18:16:47.145Z,78.87
2022-11-29T18:19:17.247Z,73.17
2022-11-29T18:21:44.446Z,74.53
2022-11-29T18:24:11.291Z,76.03
2022-11-29T18:26:38.795Z,79.67
2022-11-29T18:29:06.512Z,79.80
2022-11-29T18:31:36.094Z,73.80
2022-11-29T18:34:07.241Z,71.57
2022-11-29T18:36:45.678Z,76.23
2022-11-29T18:39:23.595Z,82.63
2022-11-29T18:41:50.924Z,79.30
2022-11-29T18:44:20.242Z,78.10
2022-11-29T18:46:47.768Z,80.07
2022-11-29T18:49:17.148Z,82.33
2022-11-29T18:51:45.690Z,84.83
2022-11-29T18:54:17.325Z,81.23
2022-11-29T18:56:45.072Z,87.83
2022-11-29T18:59:16.598Z,74.40
2022-11-29T19:01:45.146Z,76.40
2022-11-29T19:04:14.933Z,83.63
2022-11-29T19:06:42.731Z,78.13
2022-11-29T19:09:15.451Z,80.63
2022-11-29T19:11:45.370Z,76.10
2022-11-29T19:14:12.868Z,79.00
2022-11-29T19:16:44.955Z,82.17
2022-11-29T19:19:12.080Z,84.90
2022-11-29T19:21:40.042Z,78.70
2022-11-29T19:24:13.662Z,84.07
2022-11-29T19:26:42.959Z,77.00
2022-11-29T19:29:09.875Z,87.70
2022-11-29T19:31:39.344Z,73.17
2022-11-29T19:34:06.621Z,75.53
2022-11-29T19:36:34.047Z,79.13
2022-11-29T19:39:01.983Z,81.27
2022-11-29T19:41:31.461Z,78.93
2022-11-29T19:44:03.660Z,73.80
2022-11-29T19:46:34.211Z,79.50
2022-11-29T19:49:01.658Z,78.23
2022-11-29T19:51:30.326Z,78.63
2022-11-29T19:53:59.512Z,78.63
2022-11-29T19:56:26.767Z,73.37
2022-11-29T19:58:54.239Z,73.27
2022-11-29T20:01:25.609Z,80.43
2022-11-29T20:03:52.835Z,78.93
2022-11-29T20:06:19.544Z,86.47
2022-11-29T20:08:46.942Z,78.10
2022-11-29T20:11:17.989Z,81.87
2022-11-29T20:13:47.630Z,80.97
2022-11-29T20:16:17.158Z,76.10
2022-11-29T20:18:50.432Z,78.47
2022-11-29T20:21:27.137Z,76.07
2022-11-29T20:23:59.743Z,85.90
2022-11-29T20:26:27.966Z,84.40
2022-11-29T20:28:54.889Z,76.90
2022-11-29T20:31:23.239Z,79.60
2022-11-29T20:33:52.619Z,79.20
2022-11-29T20:36:28.874Z,79.97
2022-11-29T20:39:08.287Z,77.43
2022-11-29T20:41:53.477Z,78.23
2022-11-29T20:44:24.233Z,72.67
2022-11-29T20:46:51.028Z,79.17
2022-11-29T20:49:18.225Z,79.67
2022-11-29T20:51:55.737Z,77.80
2022-11-29T20:54:22.475Z,81.00
2022-11-29T20:56:49.402Z,82.93
2022-11-29T20:59:16.240Z,72.10
2022-11-29T21:01:43.069Z,77.17
2022-11-29T21:04:09.831Z,85.43
2022-11-29T21:06:39.440Z,81.97
2022-11-29T21:09:06.805Z,78.53
2022-11-29T21:11:33.797Z,81.80
2022-11-29T21:14:03.886Z,81.60
2022-11-29T21:16:31.941Z,88.20
2022-11-29T21:19:01.657Z,84.93
2022-11-29T21:21:41.870Z,75.23
2022-11-29T21:24:29.310Z,78.70
2022-11-29T21:26:56.088Z,80.93
2022-11-29T21:29:23.956Z,83.80
2022-11-29T21:31:53.729Z,73.93
2022-11-29T21:34:22.822Z,75.97
2022-11-29T21:36:57.898Z,80.43
2022-11-29T21:39:33.364Z,80.70
2022-11-29T21:42:00.155Z,80.87
2022-11-29T21:44:26.810Z,79.80
2022-11-29T21:46:53.633Z,82.57
2022-11-29T21:49:20.355Z,81.37
2022-11-29T21:51:47.070Z,83.57
2022-11-29T21:54:13.853Z,82.40
2022-11-29T21:56:40.537Z,79.43
2022-11-29T21:59:07.286Z,82.67
2022-11-29T22:01:34.232Z,85.10
2022-11-29T22:04:01.221Z,84.73
2022-11-29T22:06:29.432Z,76.17
2022-11-29T22:08:56.956Z,82.90
2022-11-29T22:11:36.176Z,84.10
2022-11-29T22:14:14.230Z,84.03
2022-11-29T22:16:58.800Z,76.77
2022-11-29T22:19:33.569Z,80.03
2022-11-29T22:22:03.953Z,85.97
2022-11-29T22:24:34.148Z,87.67
2022-11-29T22:27:01.622Z,83.23
2022-11-29T22:29:29.353Z,77.87
2022-11-29T22:31:57.294Z,83.57
2022-11-29T22:34:27.142Z,80.60
2022-11-29T22:36:54.395Z,78.97
2022-11-29T22:39:21.098Z,84.63
2022-11-29T22:41:53.562Z,84.57
2022-11-29T22:44:21.340Z,83.57
2022-11-29T22:46:48.131Z,81.77
2022-11-29T22:49:15.061Z,81.73
2022-11-29T22:51:41.859Z,87.57
2022-11-29T22:54:11.323Z,86.13
2022-11-29T22:56:40.388Z,86.23
2022-11-29T22:59:07.663Z,85.43
2022-11-29T23:01:36.932Z,85.27
2022-11-29T23:04:07.069Z,85.50
2022-11-29T23:06:39.199Z,81.90
2022-11-29T23:09:17.305Z,84.97
2022-11-29T23:11:45.698Z,79.80
2022-11-29T23:14:13.086Z,88.17
2022-11-29T23:16:40.653Z,80.07
2022-11-29T23:19:07.432Z,80.67
2022-11-29T23:21:39.745Z,82.27
2022-11-29T23:24:06.937Z,81.80
2022-11-29T23:26:37.575Z,83.87
2022-11-29T23:29:06.190Z,87.07
2022-11-29T23:31:33.616Z,88.13
2022-11-29T23:34:01.333Z,83.57
2022-11-29T23:36:28.236Z,81.80
2022-11-29T23:38:54.942Z,84.67
2022-11-29T23:41:21.664Z,90.50
2022-11-29T23:43:51.116Z,84.70
2022-11-29T23:46:20.849Z,84.30
2022-11-29T23:48:48.520Z,86.47
2022-11-29T23:51:16.357Z,84.40
2022-11-29T23:53:43.387Z,85.63
2022-11-29T23:56:15.963Z,96.40
2022-11-29T23:58:45.803Z,85.20
